Elat'Ma, Russia
Current Conditions -  °F | °C
As of 3:00 PM on Sunday 21 Dec 2014 (Local Time) from UWGG Reporting Station
Snow Showers Snow Showers  
Wind Chill: 27°   Ceiling: 1100
Heat Index: 34°   Visibility: 4mi
Dew Point: 32°   Wind: 9mph
Humidity: 93%   Direction: 210°SSW
Pressure: 29.5"   Gusts: NA
Location:  54.95°N, 41.77°E
Report Text: UWGG 211200Z 21004MPS 7000 -SHSN OVC011CB 01/M00 Q0999 TEMPO1500 SHSNRA BKN007CB 18190045 RMK QFE743
Loading
Personal Weather Stations






























Interactive Weather Map New forecast layout! Learn more

10-Day Weather Forecast

Advertisements
Track Severe Weather on mobile